Time;durP1;ratioP1;P1;durP2;ratioP2;P2;SDS_P1;SDS_P2;PMS_P1;PMS_P2;Temp;Humidity;BMP_temperature;BMP_pressure;BME280_temperature;BME280_humidity;BME280_pressure;Samples;Min_cycle;Max_cycle;Signal;HPM_P1;HPM_P2
2023/07/13 00:01:02;;;;;;;6.60;1.70;;;15.30;99.90;;;14.72;100.00;101557.16;3995123;29;20063;-76
2023/07/13 00:03:04;;;;;;;7.43;1.52;;;15.30;99.90;;;14.71;100.00;101561.63;3993877;29;20038;-76
2023/07/13 00:05:06;;;;;;;5.78;2.28;;;15.20;99.90;;;14.69;100.00;101560.16;3997690;29;20037;-76
2023/07/13 00:07:08;;;;;;;6.88;2.03;;;15.20;99.90;;;14.68;100.00;101558.47;3981569;29;20082;-76
2023/07/13 00:09:09;;;;;;;8.77;2.28;;;15.20;99.90;;;14.65;100.00;101556.13;3981634;29;20547;-77
2023/07/13 00:11:11;;;;;;;10.10;1.95;;;15.20;99.90;;;14.65;100.00;101559.63;3977889;29;20027;-76
2023/07/13 00:13:11;;;;;;;10.68;1.70;;;15.20;99.90;;;14.57;100.00;101550.81;3981487;29;20031;-76
2023/07/13 00:15:22;;;;;;;8.05;2.28;;;15.10;99.90;;;14.58;100.00;101548.00;3977532;29;20575;-77
2023/07/13 00:17:24;;;;;;;7.35;2.22;;;15.10;99.90;;;14.59;100.00;101562.09;3996435;29;20061;-77
2023/07/13 00:19:25;;;;;;;5.57;1.73;;;15.10;99.90;;;14.58;100.00;101555.13;3993829;29;20394;-76
2023/07/13 00:21:26;;;;;;;5.15;2.17;;;15.10;99.90;;;14.58;100.00;101553.31;3995941;29;20049;-76
2023/07/13 00:23:27;;;;;;;6.47;2.47;;;15.10;99.90;;;14.57;100.00;101545.50;3997428;29;20087;-76
2023/07/13 00:25:28;;;;;;;5.90;2.30;;;15.10;99.90;;;14.56;100.00;101557.13;3997314;29;20030;-77
2023/07/13 00:27:31;;;;;;;8.90;3.42;;;15.10;99.90;;;14.56;100.00;101557.13;3993635;29;20026;-77
2023/07/13 00:29:33;;;;;;;7.63;3.22;;;15.10;99.90;;;14.50;100.00;101544.47;3996907;29;20022;-76
2023/07/13 00:31:35;;;;;;;11.18;4.55;;;15.10;99.90;;;14.44;100.00;101540.66;3978476;29;20033;-77
2023/07/13 00:33:37;;;;;;;11.15;4.75;;;15.10;99.90;;;14.52;100.00;101559.25;3996340;29;20041;-77
2023/07/13 00:35:39;;;;;;;12.60;5.05;;;15.00;99.90;;;14.50;100.00;101555.09;3981200;29;20023;-77
2023/07/13 00:37:40;;;;;;;9.48;5.25;;;15.00;99.90;;;14.49;100.00;101553.44;3966255;29;20484;-77
2023/07/13 00:39:41;;;;;;;12.70;4.72;;;15.00;99.90;;;14.48;100.00;101551.78;3977202;29;20031;-77
2023/07/13 00:41:42;;;;;;;12.52;5.20;;;15.00;99.90;;;14.49;100.00;101553.44;3977214;29;20035;-76
2023/07/13 00:43:43;;;;;;;8.90;5.15;;;15.00;99.90;;;14.46;100.00;101543.97;3997163;29;20099;-77
2023/07/13 00:45:44;;;;;;;16.30;5.60;;;15.00;99.90;;;14.43;100.00;101546.09;3991674;29;20034;-76
2023/07/13 00:47:45;;;;;;;13.85;5.22;;;15.00;99.90;;;14.43;100.00;101549.59;3977814;29;20391;-77
2023/07/13 00:49:46;;;;;;;13.65;6.30;;;15.00;99.90;;;14.42;100.00;101547.97;3978578;29;20034;-76
2023/07/13 00:52:03;;;;;;;14.90;5.95;;;15.00;99.90;;;14.40;100.00;101545.44;3995368;29;20023;-76
2023/07/13 00:54:09;;;;;;;14.98;6.25;;;15.00;99.90;;;14.41;100.00;101548.94;3980562;29;20067;-76
2023/07/13 00:56:11;;;;;;;15.90;5.50;;;14.90;99.90;;;14.35;100.00;101541.63;3981326;29;20035;-76
2023/07/13 00:58:12;;;;;;;10.35;5.85;;;15.00;99.90;;;14.35;100.00;101541.63;3996123;29;20037;-76
2023/07/13 01:00:14;;;;;;;12.93;5.93;;;14.90;99.90;;;14.35;100.00;101547.78;3976992;29;20031;-76
2023/07/13 01:02:16;;;;;;;9.35;5.10;;;14.90;99.90;;;14.27;100.00;101534.44;3980767;29;20066;-76
2023/07/13 01:04:18;;;;;;;9.25;6.30;;;14.80;99.90;;;14.29;100.00;101543.06;3977129;29;20034;-76
2023/07/13 01:06:19;;;;;;;10.07;5.18;;;14.80;99.90;;;14.27;100.00;101545.06;3992903;29;20547;-76
2023/07/13 01:08:21;;;;;;;11.68;4.30;;;14.80;99.90;;;14.22;100.00;101544.69;3995714;29;20031;-76
2023/07/13 01:10:24;;;;;;;7.20;3.67;;;14.70;99.90;;;14.21;100.00;101547.53;3995781;29;20125;-76
2023/07/13 01:12:25;;;;;;;11.90;4.25;;;14.70;99.90;;;14.16;100.00;101542.66;3993113;29;20030;-76
2023/07/13 01:14:26;;;;;;;11.02;4.00;;;14.70;99.90;;;14.19;100.00;101547.66;3996864;29;20045;-76
2023/07/13 01:16:31;;;;;;;12.70;5.20;;;14.70;99.90;;;14.17;100.00;101544.34;3995392;29;20068;-76
2023/07/13 01:18:32;;;;;;;9.00;4.43;;;14.70;99.90;;;14.17;100.00;101548.81;4002271;29;20071;-76
2023/07/13 01:20:36;;;;;;;7.30;3.90;;;14.70;99.90;;;14.15;100.00;101545.50;3995595;29;20029;-77
2023/07/13 01:22:37;;;;;;;10.65;4.88;;;14.70;99.90;;;14.14;100.00;101549.97;3992832;29;20511;-76
2023/07/13 01:24:45;;;;;;;9.02;4.30;;;14.70;99.90;;;14.13;100.00;101542.16;3996725;29;20026;-76
2023/07/13 01:26:46;;;;;;;9.20;4.18;;;14.70;99.90;;;14.15;100.00;101551.66;3981024;29;20031;-76
2023/07/13 01:28:47;;;;;;;9.20;4.65;;;14.70;99.90;;;14.13;100.00;101548.31;3976752;29;20031;-76
2023/07/13 01:30:48;;;;;;;7.97;3.63;;;14.70;99.90;;;14.13;100.00;101553.59;3984919;29;20023;-76
2023/07/13 01:32:49;;;;;;;6.82;4.18;;;14.60;99.90;;;14.15;100.00;101551.66;3992613;29;20402;-76
2023/07/13 01:34:54;;;;;;;11.43;4.00;;;14.70;99.90;;;14.18;100.00;101550.50;3992743;29;20031;-76
2023/07/13 01:36:54;;;;;;;8.90;3.20;;;14.70;99.90;;;14.19;100.00;101549.47;3992384;29;20026;-76
2023/07/13 01:38:55;;;;;;;8.23;3.03;;;14.70;99.90;;;14.19;100.00;101552.13;3995383;29;20110;-77
2023/07/13 01:40:56;;;;;;;6.97;3.38;;;14.70;99.90;;;14.20;100.00;101552.00;3980402;29;20031;-76
2023/07/13 01:42:58;;;;;;;5.75;2.72;;;14.80;99.90;;;14.18;100.00;101551.31;3993296;29;20042;-76
2023/07/13 01:44:59;;;;;;;6.95;3.30;;;14.70;99.90;;;14.18;100.00;101553.97;3979444;29;20026;-76
2023/07/13 01:47:01;;;;;;;6.60;2.92;;;14.70;99.90;;;14.18;100.00;101556.63;3992437;29;20049;-76
2023/07/13 01:49:02;;;;;;;6.25;2.70;;;14.70;99.90;;;14.12;100.00;101548.47;3994857;29;20514;-76
2023/07/13 01:51:03;;;;;;;7.50;2.45;;;14.70;99.90;;;14.11;100.00;101544.97;3976161;29;20031;-76
2023/07/13 01:53:04;;;;;;;7.40;3.03;;;14.70;99.90;;;14.06;100.00;101547.28;3992438;29;20035;-76
2023/07/13 01:55:06;;;;;;;9.23;2.83;;;14.60;99.90;;;14.09;100.00;101556.75;3996305;29;20034;-76
2023/07/13 01:57:07;;;;;;;8.27;2.95;;;14.60;99.90;;;14.06;100.00;101557.91;3995746;29;20037;-76
2023/07/13 01:59:09;;;;;;;9.95;2.63;;;14.60;99.90;;;14.04;100.00;101549.25;3993129;29;20053;-76
2023/07/13 02:01:10;;;;;;;8.73;2.97;;;14.60;99.90;;;14.04;100.00;101557.22;3981333;29;20083;-76
2023/07/13 02:03:11;;;;;;;8.77;2.80;;;14.60;99.90;;;14.02;100.00;101545.94;3975357;29;20031;-76
2023/07/13 02:05:13;;;;;;;10.07;3.28;;;14.60;99.90;;;14.02;100.00;101548.59;3996032;29;20027;-76
2023/07/13 02:07:15;;;;;;;11.27;2.88;;;14.60;99.90;;;13.99;100.00;101546.25;3979654;29;20038;-76
2023/07/13 02:09:16;;;;;;;7.32;3.00;;;14.60;99.90;;;13.99;100.00;101562.16;3979959;29;20049;-76
2023/07/13 02:11:17;;;;;;;5.03;2.53;;;14.50;99.90;;;13.95;100.00;101544.91;3996110;29;20030;-76
2023/07/13 02:13:18;;;;;;;9.82;2.97;;;14.50;99.90;;;13.93;100.00;101540.75;3975864;29;20117;-76
2023/07/13 02:15:19;;;;;;;5.95;2.67;;;14.50;99.90;;;13.94;100.00;101545.06;3993449;29;20030;-76
2023/07/13 02:17:20;;;;;;;8.70;2.78;;;14.50;99.90;;;13.95;100.00;101544.91;3996198;29;20368;-76
2023/07/13 02:19:20;;;;;;;7.75;2.67;;;14.50;99.90;;;13.96;100.00;101551.88;3992252;29;20038;-76
2023/07/13 02:21:23;;;;;;;7.25;2.55;;;14.50;99.90;;;14.01;100.00;101546.09;3995595;29;20451;-76
2023/07/13 02:23:24;;;;;;;8.48;2.78;;;14.50;99.90;;;14.03;100.00;101542.31;3975786;29;20038;-76
2023/07/13 02:25:26;;;;;;;8.73;2.83;;;14.60;99.90;;;14.05;100.00;101539.47;3992028;29;20025;-76
2023/07/13 02:27:28;;;;;;;7.00;3.20;;;14.60;99.90;;;14.07;100.00;101535.66;3992049;29;20038;-76
2023/07/13 02:29:28;;;;;;;5.65;2.47;;;14.60;99.90;;;14.11;100.00;101544.16;3992188;29;20019;-76
2023/07/13 02:31:29;;;;;;;7.65;2.80;;;14.60;99.90;;;14.13;100.00;101542.16;3978064;29;20030;-76
2023/07/13 02:33:30;;;;;;;9.25;2.92;;;14.70;99.90;;;14.18;100.00;101538.06;4000249;29;20026;-76
2023/07/13 02:35:31;;;;;;;7.78;2.60;;;14.70;99.90;;;14.18;100.00;101540.72;3995633;29;20034;-76
2023/07/13 02:37:32;;;;;;;7.82;3.58;;;14.70;99.90;;;14.19;100.00;101530.91;3994603;29;20027;-76
2023/07/13 02:39:33;;;;;;;5.13;2.55;;;14.70;99.90;;;14.17;100.00;101531.09;3975847;29;20560;-76
2023/07/13 02:41:34;;;;;;;11.00;3.10;;;14.70;99.90;;;14.14;100.00;101526.09;3988591;29;20053;-76
2023/07/13 02:43:35;;;;;;;7.20;2.50;;;14.70;99.90;;;14.10;100.00;101526.56;3979002;29;20027;-76
2023/07/13 02:45:36;;;;;;;4.88;2.53;;;14.60;99.90;;;14.06;100.00;101536.69;3994553;29;20034;-76
2023/07/13 02:47:37;;;;;;;4.80;2.38;;;14.60;99.90;;;14.04;100.00;101533.34;3993411;29;20030;-76
2023/07/13 02:49:38;;;;;;;6.00;3.08;;;14.60;99.90;;;14.01;100.00;101536.31;3977984;29;20093;-76
2023/07/13 02:51:39;;;;;;;6.70;3.10;;;14.60;99.90;;;13.93;100.00;101535.44;3991613;29;20037;-76
2023/07/13 02:53:40;;;;;;;5.05;2.38;;;14.50;99.90;;;13.91;100.00;101535.63;3991734;29;20026;-76
2023/07/13 02:55:47;;;;;;;4.68;2.28;;;14.50;99.90;;;13.88;100.00;101530.63;3995642;29;20083;-76
2023/07/13 02:57:47;;;;;;;4.45;2.55;;;14.40;99.90;;;13.77;100.00;101518.44;3976156;29;20106;-76
2023/07/13 02:59:48;;;;;;;3.72;2.20;;;14.40;99.90;;;13.84;100.00;101537.22;3979476;29;20023;-76
2023/07/13 03:01:49;;;;;;;4.47;2.50;;;14.40;99.90;;;13.76;100.00;101523.94;3991697;29;20030;-76
2023/07/13 03:03:52;;;;;;;10.50;3.25;;;14.40;99.90;;;13.74;100.00;101525.88;3975875;29;20040;-76
2023/07/13 03:06:00;;;;;;;4.60;2.30;;;14.30;99.90;;;13.78;100.00;101536.03;3978822;29;20026;-76
2023/07/13 03:08:01;;;;;;;11.00;2.58;;;14.30;99.90;;;13.74;100.00;101531.19;3975760;29;20035;-76
2023/07/13 03:10:02;;;;;;;6.70;2.60;;;14.30;99.90;;;13.75;100.00;101538.16;3979364;29;20027;-76
2023/07/13 03:12:04;;;;;;;4.43;2.20;;;14.30;99.90;;;13.76;100.00;101526.56;3976597;29;20059;-76
2023/07/13 03:14:04;;;;;;;7.35;2.70;;;14.40;99.90;;;13.82;100.00;101531.25;3978112;29;20115;-76
2023/07/13 03:16:06;;;;;;;4.15;2.30;;;14.40;99.90;;;13.82;100.00;101523.28;3992776;29;20046;-76
2023/07/13 03:18:07;;;;;;;5.60;2.75;;;14.40;99.90;;;13.94;100.00;101532.66;3986586;29;20072;-76
2023/07/13 03:20:09;;;;;;;5.93;3.33;;;14.50;99.90;;;14.06;100.00;101535.84;3992026;29;20041;-76
2023/07/13 03:22:10;;;;;;;5.47;2.40;;;14.60;99.90;;;14.14;100.00;101527.91;3960662;30;20482;-76
2023/07/13 03:24:11;;;;;;;7.82;2.60;;;14.70;99.90;;;14.23;100.00;101527.78;3992399;29;20047;-76
2023/07/13 03:26:17;;;;;;;7.25;2.80;;;14.80;99.90;;;14.28;100.00;101524.63;3975414;29;20517;-76
2023/07/13 03:28:18;;;;;;;7.15;2.45;;;14.80;99.90;;;14.34;100.00;101526.69;3988460;29;20034;-76
2023/07/13 03:30:19;;;;;;;6.05;2.30;;;14.90;99.90;;;14.40;100.00;101526.88;3960608;30;20032;-76
2023/07/13 03:32:19;;;;;;;6.00;2.58;;;14.90;99.90;;;14.42;100.00;101520.56;3991283;29;20490;-76
2023/07/13 03:34:20;;;;;;;3.45;2.13;;;15.00;99.90;;;14.53;100.00;101522.91;3978993;29;20117;-76
2023/07/13 03:36:26;;;;;;;9.82;3.28;;;15.00;99.90;;;14.59;100.00;101525.75;3988707;29;20034;-76
2023/07/13 03:38:27;;;;;;;10.82;2.92;;;15.10;99.90;;;14.65;100.00;101521.63;3978326;29;20035;-77
2023/07/13 03:40:28;;;;;;;5.60;2.63;;;15.20;99.90;;;14.76;100.00;101534.56;3979141;29;20499;-76
2023/07/13 03:42:29;;;;;;;6.38;3.10;;;15.20;99.90;;;14.81;100.00;101527.78;3972913;29;20026;-76
2023/07/13 03:44:30;;;;;;;7.35;2.90;;;15.30;99.90;;;14.85;100.00;101522.97;3993921;29;20030;-76
2023/07/13 03:46:31;;;;;;;5.10;2.90;;;15.40;99.90;;;14.89;100.00;101526.97;3972608;29;20038;-77
2023/07/13 03:48:32;;;;;;;3.63;1.90;;;15.50;99.90;;;14.94;100.00;101529.94;3994785;29;20491;-76
2023/07/13 03:50:33;;;;;;;7.03;2.33;;;15.50;99.90;;;15.01;100.00;101538.94;3978619;29;20042;-76
2023/07/13 03:52:34;;;;;;;7.90;3.20;;;15.50;99.90;;;15.06;100.00;101549.88;3991437;29;20045;-77
2023/07/13 03:54:34;;;;;;;7.10;2.92;;;15.60;99.90;;;15.07;100.00;101537.44;3980306;29;20151;-77
2023/07/13 03:56:35;;;;;;;7.20;2.40;;;15.60;99.90;;;15.10;100.00;101542.41;3991137;29;20053;-76
2023/07/13 03:58:39;;;;;;;5.35;2.50;;;15.60;99.90;;;15.14;100.00;101549.06;3978776;29;20410;-77
2023/07/13 04:00:40;;;;;;;5.28;2.17;;;15.70;99.90;;;15.12;100.00;101548.38;3991109;29;20034;-76
2023/07/13 04:02:41;;;;;;;5.25;2.15;;;15.70;99.90;;;15.13;100.00;101547.41;3991067;29;20039;-76
2023/07/13 04:04:42;;;;;;;8.32;2.80;;;15.70;99.90;;;15.12;100.00;101540.41;3995073;29;20041;-77
2023/07/13 04:06:43;;;;;;;6.35;3.47;;;15.70;99.90;;;15.10;100.00;101537.94;3976592;29;20117;-76
2023/07/13 04:08:44;;;;;;;5.53;3.20;;;15.70;99.90;;;15.18;100.00;101548.56;3975892;29;20036;-76
2023/07/13 04:10:45;;;;;;;8.57;2.65;;;15.70;99.90;;;15.18;100.00;101553.03;3991227;29;20034;-76
2023/07/13 04:12:46;;;;;;;8.05;2.65;;;15.70;99.90;;;15.19;100.00;101563.53;3991348;29;20050;-76
2023/07/13 04:14:46;;;;;;;6.68;2.47;;;15.80;99.90;;;15.20;100.00;101557.19;3975007;29;20030;-76
2023/07/13 04:16:47;;;;;;;7.70;2.08;;;15.80;99.90;;;15.26;100.00;101561.84;3994735;29;20072;-77
2023/07/13 04:18:49;;;;;;;9.20;2.40;;;15.80;99.90;;;15.26;100.00;101559.19;3990904;29;20389;-77
2023/07/13 04:20:50;;;;;;;5.47;2.28;;;15.80;99.90;;;15.30;100.00;101565.00;3994755;29;20034;-77
2023/07/13 04:22:53;;;;;;;9.18;3.03;;;15.80;99.90;;;15.30;100.00;101560.53;3993460;29;20047;-77
2023/07/13 04:24:54;;;;;;;4.82;2.38;;;15.80;99.90;;;15.33;100.00;101565.50;3977812;29;20073;-76
2023/07/13 04:26:59;;;;;;;8.20;2.60;;;15.80;99.90;;;15.34;100.00;101556.53;3989925;29;20023;-76
2023/07/13 04:29:00;;;;;;;6.25;2.03;;;15.90;99.90;;;15.39;100.00;101564.00;3981570;29;20042;-76
2023/07/13 04:31:01;;;;;;;4.78;2.15;;;15.90;99.90;;;15.36;100.00;101557.19;3993433;29;20030;-76
2023/07/13 04:33:01;;;;;;;6.28;2.35;;;15.90;99.90;;;15.38;100.00;101563.16;3993763;29;20043;-76
2023/07/13 04:35:03;;;;;;;8.15;2.33;;;15.90;99.90;;;15.36;100.00;101551.06;3997496;29;20034;-76
2023/07/13 04:37:04;;;;;;;6.68;2.90;;;15.90;99.90;;;15.40;100.00;101566.50;3977079;29;20035;-76
2023/07/13 04:39:05;;;;;;;10.55;3.55;;;15.90;99.90;;;15.41;100.00;101562.84;3997251;29;20043;-76
2023/07/13 04:41:08;;;;;;;7.95;2.63;;;15.90;99.90;;;15.37;100.00;101564.19;3993298;29;20060;-76
2023/07/13 04:43:09;;;;;;;5.90;2.33;;;15.90;99.90;;;15.36;100.00;101567.00;3993314;29;20035;-76
2023/07/13 04:45:11;;;;;;;7.00;2.33;;;15.90;99.90;;;15.35;100.00;101558.19;3981329;29;20042;-77
2023/07/13 04:47:12;;;;;;;4.50;2.33;;;15.90;99.90;;;15.36;100.00;101570.50;3979782;29;20167;-77
2023/07/13 04:49:13;;;;;;;6.95;2.25;;;15.90;99.90;;;15.41;100.00;101572.66;3977873;29;20042;-76
2023/07/13 04:51:13;;;;;;;3.78;1.92;;;15.90;99.90;;;15.45;100.00;101581.94;3977917;29;20027;-76
2023/07/13 04:53:14;;;;;;;9.73;2.72;;;16.00;99.90;;;15.45;100.00;101580.13;3993396;29;20031;-76
2023/07/13 04:55:15;;;;;;;7.25;2.88;;;16.00;99.90;;;15.47;100.00;101580.00;3980925;29;20086;-76
2023/07/13 04:57:16;;;;;;;4.25;2.42;;;16.00;99.90;;;15.52;100.00;101577.66;3978202;29;20031;-77
2023/07/13 04:59:17;;;;;;;5.60;2.22;;;16.10;99.90;;;15.58;100.00;101584.97;3980005;29;20034;-76
2023/07/13 05:01:18;;;;;;;5.93;2.50;;;16.10;99.90;;;15.62;100.00;101586.28;3993149;29;20045;-76
2023/07/13 05:03:19;;;;;;;3.75;2.05;;;16.10;99.90;;;15.64;100.00;101588.78;3996897;29;20042;-76
2023/07/13 05:05:20;;;;;;;4.10;2.35;;;16.20;99.90;;;15.68;100.00;101601.56;3995673;29;20113;-76
2023/07/13 05:07:22;;;;;;;4.88;2.28;;;16.20;99.90;;;15.73;100.00;101601.09;3976987;29;20042;-76
2023/07/13 05:09:22;;;;;;;3.75;2.13;;;16.20;99.90;;;15.74;100.00;101597.44;3980819;29;20035;-76
2023/07/13 05:11:24;;;;;;;6.65;2.55;;;16.30;99.90;;;15.78;100.00;101598.72;3996995;29;20022;-76
2023/07/13 05:13:25;;;;;;;3.22;2.20;;;16.30;99.90;;;15.80;100.00;101615.38;3976971;29;20031;-76
2023/07/13 05:15:27;;;;;;;7.32;2.80;;;16.30;99.90;;;15.81;100.00;101609.88;3978942;29;20027;-76
2023/07/13 05:17:28;;;;;;;6.38;2.15;;;16.30;99.90;;;15.84;100.00;101611.38;3992900;29;20031;-76
2023/07/13 05:19:29;;;;;;;10.05;3.10;;;16.40;99.90;;;15.85;100.00;101611.22;3965752;30;20027;-76
2023/07/13 05:21:30;;;;;;;10.43;2.53;;;16.40;99.90;;;15.89;100.00;101617.84;3992333;29;20079;-76
2023/07/13 05:23:33;;;;;;;7.55;2.53;;;16.40;99.90;;;15.92;100.00;101614.00;3992780;29;20034;-77
2023/07/13 05:25:34;;;;;;;4.18;1.67;;;16.40;99.90;;;15.94;100.00;101623.50;3976787;29;20057;-76
2023/07/13 05:27:36;;;;;;;6.28;2.20;;;16.50;99.90;;;16.00;100.00;101619.31;3992889;29;20026;-76
2023/07/13 05:29:37;;;;;;;7.35;2.60;;;16.50;99.90;;;15.93;100.00;101611.19;3980403;29;20035;-76
2023/07/13 05:31:37;;;;;;;4.97;1.70;;;16.50;99.90;;;16.04;100.00;101632.09;3992777;29;20125;-77
2023/07/13 05:33:39;;;;;;;7.82;2.50;;;16.60;99.90;;;16.09;100.00;101626.28;3980553;29;20031;-77
2023/07/13 05:35:40;;;;;;;8.07;2.38;;;16.60;99.90;;;16.13;100.00;101629.44;3976443;29;20152;-77
2023/07/13 05:37:41;;;;;;;5.35;2.15;;;16.70;99.90;;;16.22;100.00;101629.22;3980211;29;20027;-76
2023/07/13 05:39:41;;;;;;;5.25;2.88;;;16.70;99.90;;;16.26;100.00;101630.56;3992594;29;20034;-77
2023/07/13 05:41:42;;;;;;;7.82;1.90;;;16.80;99.90;;;16.34;100.00;101635.00;3965263;30;20080;-77
2023/07/13 05:43:43;;;;;;;6.57;2.20;;;16.80;99.90;;;16.39;100.00;101625.53;3993978;29;20105;-77
2023/07/13 05:45:44;;;;;;;5.45;1.58;;;16.90;99.90;;;16.44;100.00;101625.00;3991480;29;20026;-76
2023/07/13 05:47:45;;;;;;;4.85;2.08;;;17.00;99.90;;;16.57;100.00;101630.66;3977008;29;20072;-76
2023/07/13 05:49:46;;;;;;;5.95;2.60;;;17.00;99.90;;;16.62;100.00;101628.28;4002934;29;20030;-76
2023/07/13 05:51:46;;;;;;;9.82;2.42;;;17.10;99.90;;;16.70;100.00;101624.75;3993190;29;20100;-76
2023/07/13 05:53:47;;;;;;;5.43;1.60;;;17.20;99.90;;;16.79;100.00;101629.84;3995802;29;20034;-77
2023/07/13 05:55:50;;;;;;;5.45;2.05;;;17.30;99.90;;;16.91;100.00;101639.13;3994928;29;20041;-77
2023/07/13 05:57:51;;;;;;;11.35;1.75;;;17.40;99.90;;;16.99;100.00;101636.41;3996275;29;20117;-76
2023/07/13 05:59:51;;;;;;;7.57;2.17;;;17.50;99.90;;;17.07;100.00;101628.38;3996336;29;20153;-77
2023/07/13 06:01:52;;;;;;;6.72;2.47;;;17.50;99.90;;;17.09;100.00;101633.50;3993841;29;20039;-76
2023/07/13 06:03:53;;;;;;;7.20;2.10;;;17.60;99.90;;;17.10;100.00;101637.84;3995993;29;20501;-76
2023/07/13 06:05:54;;;;;;;3.92;1.90;;;17.60;99.90;;;17.21;100.00;101639.25;3991177;29;20030;-76
2023/07/13 06:07:55;;;;;;;5.50;1.95;;;17.70;99.90;;;17.28;100.00;101637.56;3996262;29;20025;-76
2023/07/13 06:09:56;;;;;;;6.55;1.65;;;17.70;99.90;;;17.39;100.00;101639.81;3994898;29;20027;-76
2023/07/13 06:11:57;;;;;;;7.22;2.28;;;17.80;99.90;;;17.47;100.00;101651.22;3993190;29;20098;-76
2023/07/13 06:13:58;;;;;;;7.63;2.03;;;17.90;99.90;;;17.50;100.00;101648.19;3979060;29;20034;-76
2023/07/13 06:15:59;;;;;;;9.20;3.13;;;17.90;99.90;;;17.56;100.00;101646.72;3975737;29;20110;-76
2023/07/13 06:18:00;;;;;;;7.20;1.98;;;18.00;99.90;;;17.49;100.00;101632.41;3995928;29;20045;-76
2023/07/13 06:20:01;;;;;;;6.60;2.20;;;18.10;99.90;;;17.61;100.00;101653.16;3992094;29;20038;-76
2023/07/13 06:22:03;;;;;;;9.80;2.47;;;18.10;99.90;;;17.62;100.00;101659.34;3975578;29;20058;-77
2023/07/13 06:24:04;;;;;;;5.80;1.92;;;18.10;99.90;;;17.63;100.00;101661.81;3992009;29;20027;-77
2023/07/13 06:26:06;;;;;;;3.15;1.80;;;18.10;99.90;;;17.65;100.00;101664.31;3995628;29;20030;-77
2023/07/13 06:28:07;;;;;;;5.05;1.75;;;18.20;99.90;;;17.63;100.00;101656.47;3976373;29;20486;-77
2023/07/13 06:30:09;;;;;;;6.40;2.35;;;18.20;99.90;;;17.64;100.00;101660.81;3992014;29;20059;-77
2023/07/13 06:32:09;;;;;;;6.25;2.33;;;18.20;99.90;;;17.63;100.00;101661.81;3996050;29;20067;-77
2023/07/13 06:34:10;;;;;;;7.55;1.67;;;18.10;99.90;;;17.66;100.00;101668.63;3975815;29;20030;-77
2023/07/13 06:36:11;;;;;;;7.93;2.55;;;18.20;99.90;;;17.68;100.00;101672.78;3995638;29;20045;-76
2023/07/13 06:38:12;;;;;;;7.07;2.30;;;18.20;99.90;;;17.55;100.00;101663.72;3991698;29;20031;-77
2023/07/13 06:40:13;;;;;;;11.50;3.05;;;18.20;99.90;;;17.56;100.00;101660.06;3995976;29;20490;-77
2023/07/13 06:42:15;;;;;;;8.30;1.95;;;18.10;99.90;;;17.63;100.00;101666.31;3979845;29;20035;-77
2023/07/13 06:44:16;;;;;;;7.80;2.67;;;18.10;99.90;;;17.63;100.00;101666.31;3998548;29;20106;-77
2023/07/13 06:46:17;;;;;;;10.27;2.53;;;18.10;99.90;;;17.64;100.00;101662.66;3987347;29;20035;-76
2023/07/13 06:48:19;;;;;;;5.57;1.80;;;18.20;99.90;;;17.66;100.00;101658.78;3991282;29;20399;-76
2023/07/13 06:50:20;;;;;;;9.95;2.72;;;18.20;99.90;;;17.84;100.00;101662.97;3976529;29;20060;-76
2023/07/13 06:52:21;;;;;;;6.07;1.73;;;18.30;99.90;;;17.93;100.00;101670.72;3978028;29;20027;-76
2023/07/13 06:54:22;;;;;;;7.00;2.30;;;18.40;99.90;;;18.05;100.00;101676.44;3995903;29;20033;-76
2023/07/13 06:56:23;;;;;;;6.20;2.00;;;18.50;99.90;;;18.15;100.00;101672.53;3979883;29;20035;-77
2023/07/13 06:58:23;;;;;;;6.97;2.10;;;18.60;99.90;;;18.19;100.00;101668.44;3972664;29;20084;-77
2023/07/13 07:00:24;;;;;;;5.00;1.60;;;18.60;99.90;;;18.15;100.00;101663.66;3995738;29;20057;-76
2023/07/13 07:02:25;;;;;;;6.65;2.42;;;18.70;99.90;;;18.36;100.00;101678.97;3996042;29;20026;-76
2023/07/13 07:04:26;;;;;;;6.47;2.30;;;18.80;99.90;;;18.43;100.00;101683.38;3979567;29;20054;-76
2023/07/13 07:06:27;;;;;;;7.90;2.75;;;18.90;99.90;;;18.48;100.00;101685.50;3995632;29;20083;-77
2023/07/13 07:08:28;;;;;;;5.80;2.03;;;19.00;99.90;;;18.53;100.00;101694.66;3979460;29;20058;-77
2023/07/13 07:10:31;;;;;;;8.50;2.67;;;19.10;99.90;;;18.64;100.00;101691.50;3995634;29;20509;-76
2023/07/13 07:12:32;;;;;;;2.95;1.58;;;19.10;99.90;;;18.70;100.00;101690.78;3979605;29;20035;-77
2023/07/13 07:14:34;;;;;;;4.75;1.88;;;19.20;99.90;;;18.75;100.00;101692.91;3990350;29;20036;-76
2023/07/13 07:16:35;;;;;;;4.90;1.83;;;19.30;99.90;;;18.82;100.00;101695.66;3978334;29;20052;-76
2023/07/13 07:18:36;;;;;;;6.72;1.80;;;19.30;99.90;;;18.84;100.00;101699.81;3993859;29;20030;-77
2023/07/13 07:20:37;;;;;;;5.60;2.13;;;19.40;99.90;;;18.96;100.00;101702.84;3979211;29;20031;-77
2023/07/13 07:22:38;;;;;;;7.18;1.65;;;19.50;99.90;;;19.12;100.00;101702.59;3986345;29;20085;-76
2023/07/13 07:24:39;;;;;;;4.85;1.98;;;19.60;99.90;;;19.34;100.00;101701.63;3978078;29;20098;-76
2023/07/13 07:26:40;;;;;;;4.97;1.75;;;19.80;99.90;;;19.61;100.00;101702.75;3992081;29;20555;-76
2023/07/13 07:28:41;;;;;;;7.20;1.60;;;20.00;99.90;;;19.67;100.00;101694.78;3972086;29;20031;-76
2023/07/13 07:30:43;;;;;;;7.45;2.38;;;20.10;99.90;;;19.91;100.00;101703.41;3979313;29;20084;-76
2023/07/13 07:32:44;;;;;;;6.97;1.92;;;20.30;99.90;;;20.04;100.00;101712.38;3964214;29;20431;-76
2023/07/13 07:34:45;;;;;;;4.40;1.45;;;20.40;99.90;;;20.21;100.00;101713.75;3989861;29;20034;-76
2023/07/13 07:36:46;;;;;;;6.93;1.67;;;20.50;99.90;;;20.37;100.00;101708.09;3979207;29;20438;-77
2023/07/13 07:38:47;;;;;;;5.68;1.90;;;20.70;99.90;;;20.52;100.00;101717.91;3958092;30;20036;-76
2023/07/13 07:40:48;;;;;;;8.07;2.55;;;20.80;99.90;;;20.79;100.00;101723.19;3972646;29;20476;-77
2023/07/13 07:42:48;;;;;;;10.38;2.22;;;21.00;99.90;;;20.95;97.09;101714.81;3995461;29;20048;-76
2023/07/13 07:44:49;;;;;;;4.88;1.55;;;21.20;99.90;;;21.22;94.77;101723.00;3964183;30;20035;-76
2023/07/13 07:46:50;;;;;;;6.57;1.75;;;21.40;99.90;;;21.18;93.25;101716.34;3986324;29;20022;-76
2023/07/13 07:48:51;;;;;;;4.60;1.77;;;21.40;99.90;;;21.04;90.56;101706.59;3964041;30;20084;-77
2023/07/13 07:50:52;;;;;;;6.07;1.58;;;21.50;99.90;;;20.81;89.90;101723.84;3989279;29;20030;-77
2023/07/13 07:52:53;;;;;;;5.65;2.00;;;21.40;99.90;;;20.58;91.27;101717.13;3975261;29;20031;-77
2023/07/13 07:54:54;;;;;;;7.15;2.03;;;21.20;99.90;;;20.49;94.13;101708.38;3995145;29;20490;-77
2023/07/13 07:56:55;;;;;;;5.22;2.03;;;21.10;99.90;;;20.29;94.72;101696.72;3994038;29;20069;-77
2023/07/13 07:58:56;;;;;;;6.38;1.63;;;20.90;99.90;;;20.19;96.29;101717.66;3976835;29;20031;-77
2023/07/13 08:01:05;;;;;;;7.32;2.08;;;20.70;99.90;;;20.23;96.50;101711.69;3971672;29;20106;-77
2023/07/13 08:03:06;;;;;;;4.55;1.52;;;20.60;99.90;;;20.21;96.52;101702.22;3992920;29;20443;-77
2023/07/13 08:05:08;;;;;;;5.68;1.58;;;20.70;99.90;;;20.23;95.76;101708.19;3979186;29;20556;-77
2023/07/13 08:07:09;;;;;;;4.22;1.48;;;20.70;99.90;;;20.25;94.71;101700.81;3998062;29;20401;-77
2023/07/13 08:09:10;;;;;;;5.80;1.58;;;20.70;99.90;;;20.23;93.54;101711.69;3978554;29;20062;-77
2023/07/13 08:11:11;;;;;;;6.85;2.00;;;20.70;99.90;;;20.14;93.14;101695.97;3997813;29;20030;-77
2023/07/13 08:13:12;;;;;;;6.18;1.50;;;20.60;99.90;;;20.15;92.03;101703.81;3996618;29;20049;-77
2023/07/13 08:15:17;;;;;;;4.55;1.98;;;20.60;99.90;;;20.04;93.52;101703.53;3993686;29;20027;-77
2023/07/13 08:17:18;;;;;;;4.45;2.05;;;20.60;99.90;;;20.05;92.57;101699.81;3966672;29;20188;-77
2023/07/13 08:19:19;;;;;;;3.78;1.80;;;20.60;99.90;;;20.17;91.70;101714.31;3993192;29;20426;-77